^^
Station Historical Data
Daily Summary for January 5, 2018 Units:  English    Metric   Both
« Previous Day
Next Day »
Daily Weekly Monthly Yearly Custom
  High: Low: Average:
Temperature: TemperatureF °F 75.7 °F 87.3 °F
Dew Point: DewpointF °F 26.2 °F 42 °F
Humidity: Humidity% 7% 22%
Wind Speed: WindSpeedMPHmph 0.0mph 9.3mph
Wind Gust: WindSpeedGustMPHmph - -
Wind- - SSW
Pressure: PressureIn in 29.57 in -
Precipitation: 0.00 in    
Historical Graphs
 
 
Tabular Data for January 5, 2018
Time Temperature Dew Point Pressure Wind Wind Speed Wind Gust Humidity Rainfall Rate (Hourly) solar Conditions
TemperatureF °F DewpointF °F PressureIn in Calm     Humidity% HourlyPrecipIn in SolarRadiationWatts/m^2 W/m2 Conditions
06:18 75.7 °F 47.7 °F 29.72 in Calm     37% 0.00 in 18.0 W/m2
06:28 75.7 °F 47.7 °F 29.72 in Calm     37% 0.00 in 26.0 W/m2
06:40 76.6 °F 47.7 °F 29.72 in SW 6.9 mph 8.0 mph 36% 0.00 in 47.0 W/m2
06:58 77.4 °F 48.4 °F 29.72 in SW 8.1 mph 9.0 mph 36% 0.00 in 109.0 W/m2
07:07 78.1 °F 48.9 °F 29.71 in SW 8.9 mph 12.0 mph 36% 0.00 in 149.0 W/m2
07:16 78.4 °F 48.6 °F 29.71 in SW 4.9 mph 10.0 mph 35% 0.00 in 188.0 W/m2
07:30 79.5 °F 48.7 °F 29.71 in SW 6.9 mph 7.0 mph 34% 0.00 in 243.0 W/m2
07:35 80.1 °F 48.4 °F 29.71 in SW 11.0 mph 11.0 mph 33% 0.00 in 260.0 W/m2
07:45 80.4 °F 48.7 °F 29.72 in SW 12.1 mph 14.0 mph 33% 0.00 in 294.0 W/m2
07:50 80.8 °F 48.9 °F 29.72 in SW 11.0 mph 13.0 mph 33% 0.00 in 311.0 W/m2
07:56 81.0 °F 48.4 °F 29.72 in SW 13.0 mph 13.0 mph 32% 0.00 in 329.0 W/m2
08:08 81.9 °F 48.2 °F 29.72 in SW 10.1 mph 13.0 mph 31% 0.00 in 362.0 W/m2
08:13 82.0 °F 48.4 °F 29.72 in SW 10.1 mph 14.0 mph 31% 0.00 in 380.0 W/m2
08:19 82.4 °F 47.8 °F 29.72 in SW 12.1 mph 12.1 mph 30% 0.00 in 397.0 W/m2
08:55 85.6 °F 45.9 °F 29.71 in SW 6.9 mph 9.0 mph 25% 0.00 in 513.0 W/m2
09:12 87.4 °F 43.9 °F 29.71 in SW 6.9 mph 10.0 mph 22% 0.00 in 582.0 W/m2
09:22 88.0 °F 44.4 °F 29.71 in SW 8.9 mph 10.0 mph 22% 0.00 in 629.0 W/m2
09:38 89.1 °F 44.1 °F 29.71 in SW 6.9 mph 11.0 mph 21% 0.00 in 647.0 W/m2
09:43 89.6 °F 44.4 °F 29.71 in SW 10.1 mph 11.0 mph 21% 0.00 in 747.0 W/m2
09:48 90.1 °F 43.7 °F 29.71 in SW 6.0 mph 13.0 mph 20% 0.00 in 773.0 W/m2
09:59 91.6 °F 43.5 °F 29.71 in SW 8.1 mph 9.0 mph 19% 0.00 in 281.0 W/m2
10:08 91.9 °F 43.7 °F 29.71 in SW 8.1 mph 12.0 mph 19% 0.00 in 782.0 W/m2
10:13 92.5 °F 44.2 °F 29.71 in SW 13.0 mph 13.0 mph 19% 0.00 in 784.0 W/m2
10:23 92.8 °F 44.6 °F 29.71 in SW 11.0 mph 13.0 mph 19% 0.00 in 853.0 W/m2
11:03 93.6 °F 42.3 °F 29.71 in SW 8.9 mph 13.0 mph 17% 0.00 in 680.0 W/m2
11:23 96.3 °F 39.4 °F 29.70 in SSW 12.1 mph 14.0 mph 14% 0.00 in 940.0 W/m2
11:29 96.3 °F 39.4 °F 29.70 in SSW 8.1 mph 11.0 mph 14% 0.00 in 930.0 W/m2
11:51 97.5 °F 38.5 °F 29.70 in SW 8.9 mph 16.0 mph 13% 0.00 in 939.0 W/m2
14:30 102.7 °F 35.8 °F 29.62 in SW 4.9 mph 11.0 mph 10% 0.00 in 911.0 W/m2
15:30 104.2 °F 31.3 °F 29.61 in South 8.9 mph 14.0 mph 8% 0.00 in 800.0 W/m2
15:45 104.2 °F 31.3 °F 29.60 in SSE 16.1 mph 17.0 mph 8% 0.00 in 763.0 W/m2
16:12 105.1 °F 28.6 °F 29.59 in South 13.0 mph 14.0 mph 7% 0.00 in 675.0 W/m2
16:26 104.7 °F 28.4 °F 29.58 in SSW 8.9 mph 17.0 mph 7% 0.00 in 631.0 W/m2
16:32 104.2 °F 28.0 °F 29.58 in SSW 8.9 mph 11.0 mph 7% 0.00 in 613.0 W/m2
16:37 104.2 °F 28.0 °F 29.58 in SSW 8.9 mph 15.0 mph 7% 0.00 in 598.0 W/m2
16:47 103.8 °F 30.9 °F 29.57 in SSW 4.9 mph 9.0 mph 8% 0.00 in 564.0 W/m2
18:41 101.7 °F 26.2 °F 29.57 in South 16.1 mph 18.0 mph 7% 0.00 in 174.0 W/m2
18:53 100.9 °F 31.8 °F 29.57 in SSW 19.0 mph 19.0 mph 9% 0.00 in 130.0 W/m2
19:07 99.5 °F 33.3 °F 29.58 in South 19.0 mph 20.0 mph 10% 0.00 in 77.0 W/m2
20:16 93.7 °F 46.6 °F 29.61 in SSW 11.0 mph 17.0 mph 20% 0.00 in 0.0 W/m2
20:42 91.6 °F 48.6 °F 29.62 in SW 16.1 mph 17.0 mph 23% 0.00 in 0.0 W/m2
21:19 88.3 °F 48.0 °F 29.64 in SSW 13.0 mph 15.0 mph 25% 0.00 in 0.0 W/m2
21:27 87.6 °F 47.5 °F 29.65 in SSW 11.0 mph 15.0 mph 25% 0.00 in 0.0 W/m2
21:43 86.5 °F 47.7 °F 29.65 in South 10.1 mph 17.0 mph 26% 0.00 in 0.0 W/m2
21:47 86.4 °F 47.5 °F 29.65 in South 13.0 mph 14.0 mph 26% 0.00 in 0.0 W/m2
22:00 85.8 °F 46.9 °F 29.66 in South 12.1 mph 17.0 mph 26% 0.00 in 0.0 W/m2
22:24 84.7 °F 45.0 °F 29.68 in SSW 8.1 mph 15.0 mph 25% 0.00 in 0.0 W/m2
22:30 84.6 °F 45.0 °F 29.68 in South 6.9 mph 10.0 mph 25% 0.00 in 0.0 W/m2
22:40 84.0 °F 43.3 °F 29.69 in South 12.1 mph 14.0 mph 24% 0.00 in 0.0 W/m2
22:52 83.5 °F 43.9 °F 29.69 in South 8.9 mph 11.0 mph 25% 0.00 in 0.0 W/m2
23:03 83.3 °F 44.8 °F 29.70 in Calm   4.0 mph 26% 0.00 in 0.0 W/m2
23:19 82.4 °F 44.1 °F 29.69 in SSW 4.9 mph 7.0 mph 26% 0.00 in 0.0 W/m2
23:29 81.1 °F 45.0 °F 29.69 in SSW 8.1 mph 10.0 mph 28% 0.00 in 0.0 W/m2
23:43 80.4 °F 46.2 °F 29.69 in SSW 8.9 mph 12.0 mph 30% 0.00 in 0.0 W/m2
23:58 79.7 °F 47.3 °F 29.69 in SSW 8.9 mph 11.0 mph 32% 0.00 in 0.0 W/m2
Canyon Roadhouse, Fishriver Canyon, Namibia
Compliments of Weather Underground - 1.75 mb